Time;durP1;ratioP1;P1;durP2;ratioP2;P2;SDS_P1;SDS_P2;PMS_P1;PMS_P2;Temp;Humidity;BMP_temperature;BMP_pressure;BME280_temperature;BME280_humidity;BME280_pressure;Samples;Min_cycle;Max_cycle;Signal;HPM_P1;HPM_P2
2022/07/06 00:00:34;;;;;;;3.70;1.17;;;15.50;99.90;;;;;;4969636;28;20031;-54
2022/07/06 00:02:59;;;;;;;3.10;0.95;;;15.50;99.90;;;;;;4942788;28;20088;-56
2022/07/06 00:05:25;;;;;;;4.15;0.98;;;15.50;99.90;;;;;;4966961;28;20402;-53
2022/07/06 00:07:51;;;;;;;3.92;1.20;;;15.50;99.90;;;;;;4936527;28;20050;-53
2022/07/06 00:10:17;;;;;;;4.35;1.27;;;15.50;99.90;;;;;;4969010;28;20315;-51
2022/07/06 00:12:43;;;;;;;3.97;1.42;;;15.50;99.90;;;;;;4923243;28;20459;-56
2022/07/06 00:15:09;;;;;;;6.15;1.35;;;15.50;99.90;;;;;;4966617;28;20396;-55
2022/07/06 00:17:34;;;;;;;3.50;1.20;;;15.50;99.90;;;;;;4936619;28;20473;-56
2022/07/06 00:20:00;;;;;;;2.47;1.35;;;15.50;99.90;;;;;;4926128;28;20166;-55
2022/07/06 00:22:26;;;;;;;4.50;1.20;;;15.50;99.90;;;;;;4935743;28;20050;-57
2022/07/06 00:24:52;;;;;;;3.35;1.40;;;15.50;99.90;;;;;;4952862;28;20525;-57
2022/07/06 00:27:17;;;;;;;3.50;1.27;;;15.50;99.90;;;;;;4936910;28;20040;-57
2022/07/06 00:29:43;;;;;;;2.35;0.85;;;15.50;99.90;;;;;;4946606;28;20046;-50
2022/07/06 00:32:12;;;;;;;4.13;1.50;;;15.50;99.90;;;;;;4938041;28;20054;-50
2022/07/06 00:34:41;;;;;;;5.40;1.20;;;15.50;99.90;;;;;;4963333;28;20278;-55
2022/07/06 00:37:07;;;;;;;4.90;1.00;;;15.50;99.90;;;;;;4966724;28;20152;-52
2022/07/06 00:39:34;;;;;;;4.30;0.85;;;15.50;99.90;;;;;;4938793;28;20398;-56
2022/07/06 00:41:59;;;;;;;3.58;1.27;;;15.50;99.90;;;;;;4965164;28;22266;-58
2022/07/06 00:44:25;;;;;;;8.20;1.25;;;15.50;99.90;;;;;;4934161;28;20053;-57
2022/07/06 00:46:51;;;;;;;5.13;1.00;;;15.40;99.90;;;;;;4938499;28;20086;-56
2022/07/06 00:52:01;;;;;;;5.03;0.90;;;15.30;99.90;;;;;;4926954;28;20043;-57
2022/07/06 00:54:31;;;;;;;6.40;0.95;;;15.30;99.90;;;;;;4938605;28;20525;-51
2022/07/06 00:56:58;;;;;;;3.30;1.05;;;15.30;99.90;;;;;;4967241;28;20094;-54
2022/07/06 00:59:24;;;;;;;2.80;0.95;;;15.30;99.90;;;;;;4939387;28;20039;-54
2022/07/06 01:01:50;;;;;;;5.25;0.90;;;15.40;99.90;;;;;;4951388;28;20073;-55
2022/07/06 01:04:16;;;;;;;3.65;0.88;;;15.50;99.90;;;;;;4967850;28;20118;-55
2022/07/06 01:06:45;;;;;;;4.95;0.77;;;15.50;99.90;;;;;;4964404;28;20324;-54
2022/07/06 01:09:11;;;;;;;6.35;1.10;;;15.40;99.90;;;;;;4937507;28;20488;-53
2022/07/06 01:11:36;;;;;;;3.70;0.90;;;15.50;99.90;;;;;;4947508;28;20138;-53
2022/07/06 01:14:02;;;;;;;5.95;1.45;;;15.50;99.90;;;;;;4934890;28;20077;-53
2022/07/06 01:16:28;;;;;;;4.63;0.80;;;15.50;99.90;;;;;;4936556;28;20253;-52
2022/07/06 01:18:54;;;;;;;10.57;1.55;;;15.50;99.90;;;;;;4932023;28;20395;-53
2022/07/06 01:21:20;;;;;;;5.60;0.90;;;15.40;99.90;;;;;;4933851;28;20454;-50
2022/07/06 01:23:47;;;;;;;7.40;0.98;;;15.40;99.90;;;;;;4950755;28;20509;-53
2022/07/06 01:26:19;;;;;;;7.45;1.33;;;15.30;99.90;;;;;;4960213;28;20059;-57
2022/07/06 01:28:45;;;;;;;5.50;1.30;;;15.20;99.90;;;;;;4966474;28;20375;-52
2022/07/06 01:31:22;;;;;;;4.95;1.50;;;15.10;99.90;;;;;;4964957;28;20047;-57
2022/07/06 01:33:50;;;;;;;3.58;1.02;;;15.10;99.90;;;;;;4965592;28;20061;-57
2022/07/06 01:36:16;;;;;;;3.63;1.30;;;15.10;99.90;;;;;;4934599;28;20066;-57
2022/07/06 01:38:45;;;;;;;5.05;1.10;;;15.10;99.90;;;;;;4939913;28;20038;-53
2022/07/06 01:41:10;;;;;;;3.28;0.93;;;15.10;99.90;;;;;;4959222;28;20138;-57
2022/07/06 01:43:37;;;;;;;5.20;1.10;;;15.10;99.90;;;;;;4934990;28;20047;-57
2022/07/06 01:46:02;;;;;;;6.63;1.55;;;15.00;99.90;;;;;;4934551;28;20050;-50
2022/07/06 01:48:28;;;;;;;6.57;0.90;;;15.00;99.90;;;;;;4962820;28;20044;-54
2022/07/06 01:50:54;;;;;;;4.63;1.10;;;15.10;99.90;;;;;;4951484;28;20039;-55
2022/07/06 01:53:19;;;;;;;6.00;1.30;;;15.10;99.90;;;;;;4941538;28;20937;-56
2022/07/06 01:55:45;;;;;;;4.28;0.90;;;15.10;99.90;;;;;;4942802;28;20046;-56
2022/07/06 01:58:11;;;;;;;7.97;1.10;;;15.10;99.90;;;;;;4936622;28;20129;-55
2022/07/06 02:00:36;;;;;;;4.03;0.95;;;15.00;99.90;;;;;;4949634;28;20046;-55
2022/07/06 02:03:02;;;;;;;5.32;0.98;;;15.00;99.90;;;;;;4934433;28;20038;-53
2022/07/06 02:05:28;;;;;;;3.53;0.95;;;15.00;99.90;;;;;;4962216;28;20051;-55
2022/07/06 02:07:54;;;;;;;4.50;0.93;;;15.00;99.90;;;;;;4962471;28;20046;-53
2022/07/06 02:10:19;;;;;;;5.60;0.80;;;15.00;99.90;;;;;;4946656;28;20160;-55
2022/07/06 02:12:46;;;;;;;5.07;0.93;;;14.90;99.90;;;;;;4963940;28;20046;-54
2022/07/06 02:15:12;;;;;;;4.38;1.00;;;14.90;99.90;;;;;;4962117;28;20047;-54
2022/07/06 02:17:37;;;;;;;10.65;1.20;;;14.90;99.90;;;;;;4971428;28;20058;-52
2022/07/06 02:20:04;;;;;;;7.05;1.42;;;14.90;99.90;;;;;;4962632;28;20038;-55
2022/07/06 02:22:30;;;;;;;6.93;1.45;;;14.90;99.90;;;;;;4965462;28;20038;-50
2022/07/06 02:24:56;;;;;;;5.63;1.20;;;14.90;99.90;;;;;;4951900;28;20516;-51
2022/07/06 02:27:22;;;;;;;5.95;1.35;;;14.90;99.90;;;;;;4948394;28;20047;-53
2022/07/06 02:29:47;;;;;;;4.90;1.08;;;14.90;99.90;;;;;;4961684;28;20445;-55
2022/07/06 02:32:13;;;;;;;8.00;1.35;;;14.90;99.90;;;;;;4946171;28;20062;-53
2022/07/06 02:34:39;;;;;;;3.88;0.82;;;14.90;99.90;;;;;;4933863;28;20043;-55
2022/07/06 02:37:05;;;;;;;5.78;1.02;;;14.80;99.90;;;;;;4938984;28;20053;-53
2022/07/06 02:39:30;;;;;;;5.18;1.00;;;14.80;99.90;;;;;;4968473;28;20039;-57
2022/07/06 02:41:56;;;;;;;7.32;1.08;;;14.80;99.90;;;;;;4975688;28;20047;-53
2022/07/06 02:44:22;;;;;;;4.55;1.15;;;14.80;99.90;;;;;;4966207;28;20052;-53
2022/07/06 02:46:47;;;;;;;6.38;1.17;;;14.80;99.90;;;;;;4957575;28;20043;-56
2022/07/06 02:49:13;;;;;;;5.20;1.00;;;14.80;99.90;;;;;;4975659;28;20517;-51
2022/07/06 02:51:39;;;;;;;4.13;0.77;;;14.80;99.90;;;;;;4959282;28;20478;-56
2022/07/06 02:54:05;;;;;;;3.63;1.33;;;14.80;99.90;;;;;;4944733;28;20133;-56
2022/07/06 02:56:30;;;;;;;5.05;1.35;;;14.80;99.90;;;;;;4944782;28;20509;-54
2022/07/06 02:58:56;;;;;;;4.70;1.23;;;14.70;99.90;;;;;;4958197;28;20043;-52
2022/07/06 03:01:22;;;;;;;2.42;0.60;;;14.70;99.90;;;;;;4959718;28;20080;-53
2022/07/06 03:03:47;;;;;;;6.18;1.05;;;14.70;99.90;;;;;;4976239;28;20783;-54
2022/07/06 03:06:13;;;;;;;2.80;0.80;;;14.60;99.90;;;;;;4942410;28;20047;-50
2022/07/06 03:08:39;;;;;;;3.42;0.90;;;14.60;99.90;;;;;;4952159;28;20045;-50
2022/07/06 03:11:05;;;;;;;4.93;0.90;;;14.60;99.90;;;;;;4945539;28;20590;-53
2022/07/06 03:13:30;;;;;;;6.47;1.35;;;14.60;99.90;;;;;;4961950;28;20051;-55
2022/07/06 03:15:56;;;;;;;8.45;1.20;;;14.60;99.90;;;;;;4979151;28;20329;-53
2022/07/06 03:18:22;;;;;;;2.70;0.77;;;14.60;99.90;;;;;;4944572;28;20046;-50
2022/07/06 03:20:48;;;;;;;4.97;0.80;;;14.50;99.90;;;;;;4944895;28;20161;-49
2022/07/06 03:23:14;;;;;;;8.52;1.38;;;14.50;99.90;;;;;;4974051;28;20401;-56
2022/07/06 03:25:39;;;;;;;2.97;1.00;;;14.50;99.90;;;;;;4936294;28;20045;-51
2022/07/06 03:28:05;;;;;;;5.38;1.10;;;14.40;99.90;;;;;;4949109;28;20475;-55
2022/07/06 03:30:31;;;;;;;6.63;0.85;;;14.40;99.90;;;;;;4956753;28;20421;-55
2022/07/06 03:32:57;;;;;;;3.35;0.75;;;14.30;99.90;;;;;;4967148;28;20253;-54
2022/07/06 03:35:22;;;;;;;4.22;0.90;;;14.30;99.90;;;;;;4944180;28;20061;-53
2022/07/06 03:37:48;;;;;;;5.40;1.17;;;14.30;99.90;;;;;;4963548;28;20054;-53
2022/07/06 03:40:14;;;;;;;3.20;0.90;;;14.30;99.90;;;;;;4977629;28;20039;-52
2022/07/06 03:42:40;;;;;;;2.45;0.82;;;14.30;99.90;;;;;;4957391;28;20452;-57
2022/07/06 03:45:06;;;;;;;4.32;1.00;;;14.20;99.90;;;;;;4952916;28;20042;-52
2022/07/06 03:47:32;;;;;;;4.88;0.90;;;14.20;99.90;;;;;;4971822;28;20051;-52
2022/07/06 03:49:58;;;;;;;3.80;0.95;;;14.10;99.90;;;;;;4940526;28;20104;-53
2022/07/06 03:52:23;;;;;;;5.40;1.52;;;14.10;99.90;;;;;;4945395;28;20039;-55
2022/07/06 03:54:49;;;;;;;4.20;1.10;;;14.10;99.90;;;;;;4946970;28;20047;-55
2022/07/06 03:57:16;;;;;;;6.35;0.93;;;14.10;99.90;;;;;;4952218;28;20154;-50
2022/07/06 03:59:42;;;;;;;4.18;0.90;;;14.00;99.90;;;;;;4946063;28;20031;-52
2022/07/06 04:02:08;;;;;;;5.47;0.98;;;14.00;99.90;;;;;;4942664;28;20039;-50
2022/07/06 04:04:34;;;;;;;3.55;0.88;;;14.00;99.90;;;;;;4964199;28;20562;-51
2022/07/06 04:07:00;;;;;;;2.65;0.75;;;14.00;99.90;;;;;;4944589;28;20043;-52
2022/07/06 04:09:26;;;;;;;5.00;0.80;;;13.90;99.90;;;;;;4943657;28;20042;-53
2022/07/06 04:11:52;;;;;;;3.95;1.08;;;13.90;99.90;;;;;;4972155;28;20049;-56
2022/07/06 04:14:18;;;;;;;5.72;1.38;;;14.00;99.90;;;;;;4943939;28;20042;-55
2022/07/06 04:16:43;;;;;;;4.22;0.90;;;13.90;99.90;;;;;;4947112;28;20046;-52
2022/07/06 04:19:09;;;;;;;4.53;0.82;;;14.00;99.90;;;;;;4943017;28;20088;-56
2022/07/06 04:21:35;;;;;;;3.17;0.70;;;14.00;99.90;;;;;;4946925;28;20043;-56
2022/07/06 04:24:02;;;;;;;4.13;1.20;;;13.90;99.90;;;;;;4947649;28;20130;-55
2022/07/06 04:26:27;;;;;;;4.70;1.00;;;14.00;99.90;;;;;;4947783;28;20146;-54
2022/07/06 04:28:53;;;;;;;3.90;0.95;;;13.90;99.90;;;;;;4949906;28;20081;-50
2022/07/06 04:31:19;;;;;;;6.15;1.00;;;13.90;99.90;;;;;;4978377;28;20058;-53
2022/07/06 04:33:44;;;;;;;2.25;0.68;;;13.90;99.90;;;;;;4965205;28;20478;-56
2022/07/06 04:36:11;;;;;;;6.15;0.90;;;14.00;99.90;;;;;;4961175;28;20093;-53
2022/07/06 04:38:37;;;;;;;5.00;0.80;;;13.90;99.90;;;;;;4945332;28;20166;-50
2022/07/06 04:41:03;;;;;;;4.05;1.00;;;14.00;99.90;;;;;;4946429;28;20037;-51
2022/07/06 04:43:29;;;;;;;5.45;1.10;;;14.00;99.90;;;;;;4950706;28;20538;-52
2022/07/06 04:45:55;;;;;;;10.70;2.17;;;14.00;99.90;;;;;;4943974;28;20058;-53
2022/07/06 04:48:20;;;;;;;5.13;1.30;;;14.00;99.90;;;;;;4943076;28;20483;-55
2022/07/06 04:50:46;;;;;;;5.85;1.15;;;14.00;99.90;;;;;;4955083;28;20051;-53
2022/07/06 04:53:12;;;;;;;2.88;0.85;;;14.00;99.90;;;;;;4980997;28;20047;-55
2022/07/06 04:55:38;;;;;;;2.95;0.80;;;14.00;99.90;;;;;;4973004;28;20050;-50
2022/07/06 04:58:03;;;;;;;4.88;1.17;;;14.00;99.90;;;;;;4954509;28;20421;-51
2022/07/06 05:00:29;;;;;;;5.32;2.08;;;14.10;99.90;;;;;;4962017;28;20046;-51
2022/07/06 05:02:55;;;;;;;3.80;1.10;;;14.10;99.90;;;;;;4968063;28;20053;-55
2022/07/06 05:05:21;;;;;;;6.30;1.27;;;14.10;99.90;;;;;;4939927;28;20047;-55
2022/07/06 05:07:46;;;;;;;4.05;1.08;;;14.20;99.90;;;;;;4952217;28;20313;-54
2022/07/06 05:10:12;;;;;;;4.10;1.00;;;14.30;99.90;;;;;;4953552;28;20567;-49
2022/07/06 05:12:39;;;;;;;3.53;0.80;;;14.30;99.90;;;;;;4962128;28;20045;-50
2022/07/06 05:15:05;;;;;;;3.90;0.70;;;14.40;99.90;;;;;;4971559;23;20954;-62
2022/07/06 05:17:30;;;;;;;4.15;1.00;;;14.50;99.90;;;;;;4934571;28;20463;-63
2022/07/06 05:19:56;;;;;;;2.35;0.70;;;14.50;99.90;;;;;;4943082;28;20035;-62
2022/07/06 05:22:22;;;;;;;8.30;1.25;;;14.50;99.90;;;;;;4966050;28;20209;-62
2022/07/06 05:24:48;;;;;;;6.30;0.93;;;14.60;99.90;;;;;;4941143;28;20606;-62
2022/07/06 05:27:13;;;;;;;6.38;1.25;;;14.60;99.90;;;;;;4937161;28;20047;-61
2022/07/06 05:29:39;;;;;;;3.45;0.77;;;14.80;99.90;;;;;;4938561;28;20043;-62
2022/07/06 05:32:05;;;;;;;4.35;0.90;;;14.80;99.90;;;;;;4949594;28;20212;-63
2022/07/06 05:34:32;;;;;;;5.05;0.90;;;14.90;99.90;;;;;;4946631;28;20043;-62
2022/07/06 05:36:57;;;;;;;3.85;0.70;;;15.00;99.90;;;;;;4938869;28;20085;-62
2022/07/06 05:39:23;;;;;;;5.45;1.00;;;15.10;99.90;;;;;;4937552;28;20473;-64
2022/07/06 05:41:49;;;;;;;3.53;0.70;;;15.10;99.90;;;;;;4934775;28;21342;-63
2022/07/06 05:44:15;;;;;;;6.03;0.82;;;15.10;99.90;;;;;;4938992;28;20039;-62
2022/07/06 05:46:41;;;;;;;8.32;1.55;;;15.10;99.90;;;;;;4937702;28;20046;-62
2022/07/06 05:51:51;;;;;;;;;;;15.10;99.90;;;;;;4937613;28;20158;-60
2022/07/06 05:54:16;;;;;;;3.90;1.05;;;15.00;99.90;;;;;;4936701;28;20456;-59
2022/07/06 05:56:42;;;;;;;3.20;1.17;;;15.10;99.90;;;;;;4946081;28;20848;-61
2022/07/06 05:59:08;;;;;;;5.03;0.80;;;15.10;99.90;;;;;;4937429;28;20035;-61
2022/07/06 06:01:33;;;;;;;4.13;0.90;;;15.00;99.90;;;;;;4937803;28;20130;-60
2022/07/06 06:03:59;;;;;;;4.07;1.05;;;15.10;99.90;;;;;;4938810;28;20039;-61
2022/07/06 06:06:26;;;;;;;2.80;0.70;;;15.10;99.90;;;;;;4937883;28;20800;-60
2022/07/06 06:08:52;;;;;;;3.75;0.75;;;15.10;99.90;;;;;;4944095;28;20045;-60
2022/07/06 06:11:18;;;;;;;6.15;1.17;;;15.10;99.90;;;;;;4945226;28;20130;-61
2022/07/06 06:13:43;;;;;;;3.83;0.70;;;15.10;99.90;;;;;;4948127;28;20122;-59
2022/07/06 06:16:09;;;;;;;4.05;0.80;;;15.10;99.90;;;;;;4946702;28;20073;-60
2022/07/06 06:18:35;;;;;;;3.47;0.77;;;15.10;99.90;;;;;;4948027;28;20652;-60
2022/07/06 06:21:01;;;;;;;4.72;0.82;;;15.10;99.90;;;;;;4953409;28;20040;-60
2022/07/06 06:23:27;;;;;;;2.90;0.73;;;15.10;99.90;;;;;;4937231;28;20171;-61
2022/07/06 06:25:52;;;;;;;6.65;0.95;;;15.10;99.90;;;;;;4939938;28;20045;-60
2022/07/06 06:28:18;;;;;;;4.35;0.88;;;15.00;99.90;;;;;;4946823;28;20045;-61
2022/07/06 06:30:44;;;;;;;3.42;0.90;;;15.00;99.90;;;;;;4955791;28;20038;-61
2022/07/06 06:33:18;;;;;;;4.15;0.95;;;15.00;99.90;;;;;;4938891;28;20125;-60
2022/07/06 06:35:44;;;;;;;;;;;15.00;99.90;;;;;;4936108;28;20137;-60
2022/07/06 06:38:10;;;;;;;5.53;1.15;;;15.00;99.90;;;;;;4944953;28;20452;-60
2022/07/06 06:40:36;;;;;;;3.95;0.80;;;15.00;99.90;;;;;;4941357;28;20130;-60
2022/07/06 06:43:02;;;;;;;2.88;0.80;;;15.10;99.90;;;;;;4936354;28;20031;-60
2022/07/06 06:45:27;;;;;;;5.30;0.90;;;15.10;99.90;;;;;;4934801;28;20445;-60
2022/07/06 06:47:53;;;;;;;4.38;1.08;;;15.30;99.90;;;;;;4942181;28;20043;-60
2022/07/06 06:50:19;;;;;;;3.80;0.90;;;15.30;99.90;;;;;;4933943;28;20198;-60
2022/07/06 06:52:45;;;;;;;4.28;0.82;;;15.40;99.90;;;;;;4948375;28;20038;-60
2022/07/06 06:55:11;;;;;;;4.47;0.90;;;15.40;99.90;;;;;;4954309;28;20125;-59
2022/07/06 06:57:37;;;;;;;2.47;0.80;;;15.40;99.90;;;;;;4954624;28;20122;-60
2022/07/06 07:00:04;;;;;;;6.07;1.25;;;15.40;99.90;;;;;;4953688;28;20043;-59
2022/07/06 07:02:30;;;;;;;3.22;1.05;;;15.60;99.90;;;;;;4952957;28;20034;-60
2022/07/06 07:04:56;;;;;;;3.35;0.63;;;15.60;99.90;;;;;;4952514;28;20046;-61
2022/07/06 07:07:22;;;;;;;2.75;0.50;;;15.60;99.90;;;;;;4955602;28;20080;-61
2022/07/06 07:09:47;;;;;;;2.13;0.70;;;15.60;99.90;;;;;;4954591;28;20045;-59
2022/07/06 07:12:14;;;;;;;3.67;1.25;;;15.70;99.90;;;;;;4954421;28;20053;-60
2022/07/06 07:14:40;;;;;;;4.90;1.48;;;15.90;99.90;;;;;;4956112;28;20453;-60
2022/07/06 07:17:06;;;;;;;8.98;1.63;;;16.10;99.90;;;;;;4958893;28;20126;-60
2022/07/06 07:19:32;;;;;;;6.32;0.68;;;16.20;99.90;;;;;;4958889;28;20656;-61
2022/07/06 07:21:58;;;;;;;6.38;1.08;;;16.30;99.90;;;;;;4960006;28;20107;-61
2022/07/06 07:24:23;;;;;;;3.45;0.82;;;16.50;99.90;;;;;;4954561;28;20046;-61
2022/07/06 07:26:49;;;;;;;4.28;0.80;;;16.70;99.90;;;;;;4957467;28;20046;-61
2022/07/06 07:29:15;;;;;;;4.07;0.77;;;16.80;99.90;;;;;;4953246;28;20047;-60
2022/07/06 07:31:41;;;;;;;6.13;0.95;;;17.10;99.90;;;;;;4960165;28;20046;-60
2022/07/06 07:34:07;;;;;;;5.72;0.88;;;17.10;99.90;;;;;;4961866;28;20169;-60
2022/07/06 07:36:33;;;;;;;2.15;0.57;;;17.00;99.90;;;;;;4965704;28;20640;-59
2022/07/06 07:38:58;;;;;;;6.15;0.70;;;16.90;99.90;;;;;;4961635;28;20030;-58
2022/07/06 07:41:24;;;;;;;3.72;0.65;;;16.60;99.90;;;;;;4962051;28;20097;-61
2022/07/06 07:43:50;;;;;;;3.90;0.80;;;16.50;99.90;;;;;;4982317;28;20696;-60
2022/07/06 07:46:15;;;;;;;3.90;0.70;;;16.40;99.90;;;;;;4964791;28;20038;-60
2022/07/06 07:48:41;;;;;;;4.75;1.25;;;16.50;99.90;;;;;;4965463;28;20039;-61
2022/07/06 07:51:07;;;;;;;4.88;1.85;;;16.70;99.90;;;;;;4986725;28;20043;-60
2022/07/06 07:53:33;;;;;;;7.32;1.05;;;16.70;99.90;;;;;;4965984;28;20039;-59
2022/07/06 07:55:58;;;;;;;3.63;0.50;;;16.60;99.90;;;;;;4962180;28;20073;-60
2022/07/06 07:58:24;;;;;;;3.08;0.70;;;16.40;99.90;;;;;;4964487;28;20142;-60
2022/07/06 08:00:50;;;;;;;5.45;1.10;;;16.50;99.90;;;;;;4965382;28;20117;-60
2022/07/06 08:03:16;;;;;;;3.55;0.80;;;16.70;99.90;;;;;;4962342;28;20035;-60
2022/07/06 08:05:41;;;;;;;3.15;0.60;;;16.80;99.90;;;;;;4966771;28;20046;-60
2022/07/06 08:08:07;;;;;;;3.00;0.73;;;16.90;99.90;;;;;;4961415;28;20525;-60
2022/07/06 08:10:33;;;;;;;4.03;0.73;;;17.00;99.90;;;;;;4965096;28;20114;-60
2022/07/06 08:12:59;;;;;;;1.75;0.60;;;17.20;99.90;;;;;;4968219;28;20043;-60
2022/07/06 08:15:25;;;;;;;2.97;0.60;;;17.40;99.90;;;;;;4962610;28;20504;-60
2022/07/06 08:17:50;;;;;;;3.97;0.82;;;17.60;99.90;;;;;;4964023;28;20677;-60
2022/07/06 08:20:16;;;;;;;7.55;0.70;;;17.40;99.90;;;;;;4963622;28;20046;-59
2022/07/06 08:22:43;;;;;;;6.65;0.90;;;17.60;99.90;;;;;;4964880;28;20035;-60
2022/07/06 08:25:09;;;;;;;5.40;0.80;;;17.60;99.90;;;;;;4961181;28;20031;-60
2022/07/06 08:27:34;;;;;;;4.85;1.05;;;17.60;99.90;;;;;;4966320;28;20043;-60
2022/07/06 08:30:01;;;;;;;2.97;0.80;;;17.60;99.90;;;;;;4961907;28;20500;-61
2022/07/06 08:32:26;;;;;;;4.03;0.90;;;17.50;99.90;;;;;;4958984;28;20047;-60
2022/07/06 08:34:53;;;;;;;3.40;0.90;;;17.60;99.90;;;;;;4958999;28;20497;-61
2022/07/06 08:37:19;;;;;;;2.28;0.70;;;17.30;99.90;;;;;;4949685;28;20065;-61
2022/07/06 08:39:45;;;;;;;3.05;0.70;;;17.30;99.90;;;;;;4952693;28;20034;-60
2022/07/06 08:42:12;;;;;;;3.95;0.93;;;17.50;99.90;;;;;;4953521;28;20439;-60
2022/07/06 08:44:38;;;;;;;4.28;0.90;;;17.80;99.90;;;;;;4943308;28;20037;-61
2022/07/06 08:47:07;;;;;;;4.88;1.00;;;17.90;99.00;;;;;;4950085;28;20968;-61
2022/07/06 08:49:34;;;;;;;6.97;1.10;;;17.90;98.80;;;;;;4937802;28;20177;-61
2022/07/06 08:52:02;;;;;;;3.03;1.20;;;18.00;99.10;;;;;;4942374;28;20288;-61
2022/07/06 08:54:28;;;;;;;6.25;1.10;;;18.20;99.20;;;;;;4949703;28;20134;-61
2022/07/06 08:56:54;;;;;;;3.55;0.75;;;18.40;99.00;;;;;;4958435;28;20073;-62
2022/07/06 08:59:20;;;;;;;5.72;0.70;;;18.40;98.20;;;;;;4959354;28;20035;-61
2022/07/06 09:01:47;;;;;;;3.30;0.77;;;18.20;98.60;;;;;;4953504;28;20041;-61
2022/07/06 09:04:15;;;;;;;6.07;0.90;;;18.00;98.30;;;;;;4950219;28;20039;-61
2022/07/06 09:06:42;;;;;;;7.43;1.00;;;17.90;99.40;;;;;;4951573;28;20042;-60
2022/07/06 09:09:10;;;;;;;4.97;1.17;;;18.00;99.90;;;;;;4945007;28;20074;-62
2022/07/06 09:11:37;;;;;;;5.38;0.90;;;18.30;99.90;;;;;;4949638;28;20054;-60
2022/07/06 09:14:03;;;;;;;2.33;0.88;;;18.70;99.80;;;;;;4959087;28;20086;-60
2022/07/06 09:16:30;;;;;;;3.40;0.70;;;19.10;98.80;;;;;;4954900;28;20371;-60
2022/07/06 09:18:56;;;;;;;4.40;1.00;;;19.20;98.00;;;;;;4952184;28;20501;-61
2022/07/06 09:21:32;;;;;;;4.82;0.85;;;19.00;97.20;;;;;;4943023;28;20129;-59
2022/07/06 09:24:02;;;;;;;5.53;1.00;;;18.50;97.50;;;;;;4948118;28;20073;-60
2022/07/06 09:26:28;;;;;;;6.15;1.00;;;18.50;98.10;;;;;;4940481;28;20054;-61
2022/07/06 09:28:56;;;;;;;5.25;1.10;;;18.50;97.80;;;;;;4947412;28;20129;-60
2022/07/06 09:31:22;;;;;;;1.92;0.60;;;18.60;98.20;;;;;;4941855;28;20041;-60
2022/07/06 09:34:05;;;;;;;3.38;0.82;;;18.60;98.30;;;;;;4943522;28;20039;-59
2022/07/06 09:36:42;;;;;;;3.75;0.80;;;18.60;98.10;;;;;;4953320;28;20070;-60
2022/07/06 09:39:28;;;;;;;3.47;0.95;;;18.60;98.30;;;;;;4940023;28;20051;-59
2022/07/06 09:41:59;;;;;;;2.13;0.80;;;18.70;97.50;;;;;;4934802;28;20043;-60
2022/07/06 09:44:30;;;;;;;3.03;0.95;;;18.90;97.60;;;;;;4950714;28;20039;-59
2022/07/06 09:46:59;;;;;;;3.50;0.88;;;19.00;95.90;;;;;;4962764;28;20070;-60
2022/07/06 09:49:25;;;;;;;3.25;0.65;;;19.10;95.60;;;;;;4953397;28;20138;-58
2022/07/06 09:51:59;;;;;;;4.18;1.30;;;19.20;96.60;;;;;;4958539;28;20793;-60
2022/07/06 09:54:25;;;;;;;4.22;1.02;;;19.30;97.20;;;;;;4962698;28;20054;-60
2022/07/06 09:56:52;;;;;;;3.35;0.82;;;19.40;97.10;;;;;;4974142;28;20074;-61
2022/07/06 09:59:21;;;;;;;2.30;0.65;;;19.20;96.90;;;;;;4944225;28;20074;-61
2022/07/06 10:01:47;;;;;;;4.53;0.80;;;19.20;96.60;;;;;;4958362;28;20037;-59
2022/07/06 10:04:15;;;;;;;5.10;0.90;;;19.40;97.40;;;;;;4950249;28;20043;-59
2022/07/06 10:06:41;;;;;;;1.98;0.90;;;19.60;96.70;;;;;;4959152;28;20039;-61
2022/07/06 10:09:09;;;;;;;2.05;0.75;;;19.70;95.80;;;;;;4957512;28;20069;-63
2022/07/06 10:11:39;;;;;;;4.55;0.80;;;19.70;95.90;;;;;;4955104;28;20401;-61
2022/07/06 10:14:07;;;;;;;3.90;0.77;;;19.90;95.90;;;;;;4955291;28;20050;-60
2022/07/06 10:16:35;;;;;;;4.22;0.93;;;20.10;96.00;;;;;;4957443;28;20112;-61
2022/07/06 10:19:07;;;;;;;6.40;0.80;;;20.20;96.30;;;;;;4987499;28;20046;-60
2022/07/06 10:21:36;;;;;;;2.50;0.70;;;20.10;95.20;;;;;;4998377;28;20044;-62
2022/07/06 10:24:04;;;;;;;2.38;0.60;;;20.10;95.00;;;;;;4964342;28;20543;-62
2022/07/06 10:26:31;;;;;;;2.63;0.77;;;20.30;95.30;;;;;;4972047;28;20039;-61
2022/07/06 10:28:59;;;;;;;4.82;0.77;;;20.20;95.30;;;;;;4939846;28;20490;-62
2022/07/06 10:31:26;;;;;;;1.52;0.70;;;20.10;95.00;;;;;;4966772;28;20050;-61
2022/07/06 10:33:53;;;;;;;3.15;0.80;;;20.20;95.40;;;;;;4940261;28;20043;-61
2022/07/06 10:36:18;;;;;;;4.07;0.80;;;20.40;95.50;;;;;;4957847;28;20429;-61
2022/07/06 10:38:50;;;;;;;3.53;0.70;;;20.50;95.50;;;;;;4957270;28;20512;-61
2022/07/06 10:41:16;;;;;;;1.42;0.50;;;20.60;94.70;;;;;;4949489;28;20126;-60
2022/07/06 10:43:44;;;;;;;2.97;0.88;;;20.60;94.60;;;;;;4944851;28;20030;-61
2022/07/06 10:46:15;;;;;;;3.03;0.90;;;20.90;94.40;;;;;;4946441;28;20088;-61
2022/07/06 10:48:44;;;;;;;3.60;0.70;;;20.60;93.80;;;;;;4952165;28;20034;-61
2022/07/06 10:51:27;;;;;;;4.20;0.95;;;20.40;94.40;;;;;;4946676;28;20085;-60
2022/07/06 10:53:57;;;;;;;4.68;1.08;;;20.30;94.20;;;;;;4950196;28;20135;-60
2022/07/06 10:56:44;;;;;;;2.88;0.80;;;20.10;94.50;;;;;;4954824;28;20038;-59
2022/07/06 10:59:23;;;;;;;3.88;0.60;;;20.20;95.30;;;;;;4940779;28;20043;-59
2022/07/06 11:02:11;;;;;;;5.72;1.30;;;20.40;94.30;;;;;;4948210;28;20039;-61
2022/07/06 11:04:38;;;;;;;2.95;0.63;;;20.60;94.00;;;;;;4943630;28;20162;-60
2022/07/06 11:07:13;;;;;;;3.97;0.75;;;21.00;94.30;;;;;;4945834;28;20043;-60
2022/07/06 11:09:42;;;;;;;5.55;0.98;;;21.20;93.70;;;;;;4946442;28;20050;-59
2022/07/06 11:12:35;;;;;;;1.77;0.60;;;21.40;94.20;;;;;;4938832;28;20048;-61
2022/07/06 11:15:02;;;;;;;1.90;0.80;;;21.30;93.30;;;;;;4967821;23;20051;-55
2022/07/06 11:17:28;;;;;;;3.42;1.10;;;21.50;93.70;;;;;;5025852;28;20041;-55
2022/07/06 11:20:08;;;;;;;1.52;0.82;;;21.40;92.90;;;;;;5033522;28;20047;-56
2022/07/06 11:22:37;;;;;;;4.13;1.02;;;21.20;93.00;;;;;;5010854;28;20391;-54
2022/07/06 11:25:06;;;;;;;3.03;0.77;;;21.40;92.80;;;;;;5024868;28;20373;-55
2022/07/06 11:27:33;;;;;;;4.60;1.48;;;21.40;92.30;;;;;;5039945;28;20586;-55
2022/07/06 11:29:59;;;;;;;2.83;1.00;;;21.60;93.10;;;;;;5036871;28;20041;-55
2022/07/06 11:32:27;;;;;;;1.80;0.90;;;21.80;92.80;;;;;;5044244;28;20048;-55
2022/07/06 11:34:53;;;;;;;4.50;0.70;;;21.80;93.00;;;;;;5036927;28;20041;-55
2022/07/06 11:37:20;;;;;;;3.13;0.90;;;21.70;93.00;;;;;;5035481;28;20044;-54
2022/07/06 11:39:47;;;;;;;1.92;0.70;;;21.40;93.40;;;;;;5025877;28;20076;-56
2022/07/06 11:42:18;;;;;;;2.22;0.80;;;21.30;93.30;;;;;;5010363;28;20569;-56
2022/07/06 11:44:44;;;;;;;2.97;1.00;;;21.30;93.30;;;;;;5015145;28;20049;-53
2022/07/06 11:47:11;;;;;;;2.53;0.70;;;21.10;93.00;;;;;;5027896;28;20037;-54
2022/07/06 11:49:39;;;;;;;2.63;0.70;;;21.00;93.10;;;;;;5038669;28;20067;-58
2022/07/06 11:52:13;;;;;;;3.42;0.85;;;21.00;92.80;;;;;;5043128;28;20496;-57
2022/07/06 11:54:40;;;;;;;2.75;0.60;;;20.90;92.40;;;;;;5040104;28;20156;-55
2022/07/06 11:57:09;;;;;;;4.30;1.10;;;21.00;92.90;;;;;;5040536;28;20276;-55
2022/07/06 11:59:37;;;;;;;2.00;0.73;;;21.20;92.30;;;;;;5024216;28;20111;-57
2022/07/06 12:02:06;;;;;;;1.95;0.60;;;21.30;92.30;;;;;;5027869;28;20037;-57
2022/07/06 12:04:33;;;;;;;3.13;0.80;;;21.40;92.50;;;;;;5029703;28;20068;-56
2022/07/06 12:07:05;;;;;;;2.67;0.73;;;21.40;92.20;;;;;;5024637;28;20175;-52
2022/07/06 12:09:36;;;;;;;1.95;0.88;;;21.40;92.20;;;;;;5005856;28;20679;-51
2022/07/06 12:12:03;;;;;;;5.10;1.20;;;21.20;91.30;;;;;;5039537;28;20056;-52
2022/07/06 12:14:31;;;;;;;4.40;1.25;;;21.30;91.90;;;;;;5034331;28;20458;-58
2022/07/06 12:17:04;;;;;;;1.58;0.55;;;21.30;91.60;;;;;;5005234;28;20518;-54
2022/07/06 12:19:29;;;;;;;2.20;0.93;;;21.30;91.80;;;;;;5027862;28;20052;-56
2022/07/06 12:21:56;;;;;;;2.65;1.10;;;21.20;91.90;;;;;;5030708;28;20037;-54
2022/07/06 12:24:24;;;;;;;25.63;3.80;;;21.20;92.10;;;;;;5015033;28;20102;-55
2022/07/06 12:26:51;;;;;;;5.90;1.25;;;21.30;92.10;;;;;;5034736;28;20053;-57
2022/07/06 12:29:17;;;;;;;18.73;2.40;;;21.30;92.00;;;;;;5039851;28;20367;-54
2022/07/06 12:31:53;;;;;;;5.43;1.27;;;21.40;91.60;;;;;;5017756;28;20053;-55
2022/07/06 12:34:24;;;;;;;19.42;3.60;;;20.90;90.80;;;;;;5050919;28;20298;-55
2022/07/06 12:36:58;;;;;;;7.45;1.30;;;20.60;91.50;;;;;;5036226;28;20050;-53
2022/07/06 12:39:24;;;;;;;;;;;20.30;91.60;;;;;;5035201;28;20047;-57
2022/07/06 12:41:52;;;;;;;13.30;1.65;;;20.20;92.00;;;;;;5036181;28;19916;-52
2022/07/06 12:44:23;;;;;;;13.55;2.92;;;20.30;92.30;;;;;;5061170;28;20635;-54
2022/07/06 12:46:50;;;;;;;9.95;2.03;;;20.40;92.30;;;;;;5020773;28;20063;-55
2022/07/06 12:49:22;;;;;;;15.48;2.22;;;20.40;92.20;;;;;;5038430;28;20044;-54
2022/07/06 12:51:56;;;;;;;10.25;1.90;;;20.20;92.20;;;;;;5038764;28;20111;-56